La Mesa, New Mexico
Current Conditions -  °F | °C
As of 8:35 AM on Saturday 20 Dec 2014 (Local Time) from KLRU Reporting Station
Clear Clear  
Wind Chill: 35°   Ceiling: Unl
Heat Index: 39°   Visibility: 10mi
Dew Point: 28°   Wind: 6mph
Humidity: 65%   Direction: 330°NNW
Pressure: 30.18"   Gusts: NA
Location:  32.12°N, 106.71°W
Report Text: KLRU 201535Z AUTO 33005KT 10SM CLR 04/M02 A3018 RMK AO2 T00391021
Loading
Personal Weather Stations






























Interactive Weather Map New forecast layout! Learn more

10-Day Weather Forecast

Advertisements
Track Severe Weather on mobile